createdAt,value
2017-02-24T00:00:32.541Z,94.8
2017-02-24T00:01:35.501Z,94.8
2017-02-24T00:02:37.957Z,94.8
2017-02-24T00:03:40.257Z,94.8
2017-02-24T00:04:43.226Z,94.8
2017-02-24T00:05:45.732Z,94.8
2017-02-24T00:06:48.181Z,94.8
2017-02-24T00:07:51.137Z,94.8
2017-02-24T00:08:53.593Z,94.8
2017-02-24T00:09:56.075Z,94.8
2017-02-24T00:10:58.539Z,94.8
2017-02-24T00:12:01.513Z,94.8
2017-02-24T00:13:03.981Z,94.8
2017-02-24T00:14:06.276Z,94.8
2017-02-24T00:15:09.248Z,94.8
2017-02-24T00:16:11.706Z,94.8
2017-02-24T00:17:13.990Z,94.8
2017-02-24T00:18:16.972Z,94.8
2017-02-24T00:19:19.425Z,94.8
2017-02-24T00:20:22.387Z,94.8
2017-02-24T00:21:24.742Z,94.8
2017-02-24T00:22:27.736Z,94.8
2017-02-24T00:23:30.192Z,94.8
2017-02-24T00:24:32.671Z,94.8
2017-02-24T00:25:35.121Z,94.8
2017-02-24T00:26:37.579Z,94.8
2017-02-24T00:27:40.379Z,94.8
2017-02-24T00:28:42.664Z,94.8
2017-02-24T00:29:45.631Z,94.8
2017-02-24T00:30:48.111Z,94.8
2017-02-24T00:31:50.578Z,94.8
2017-02-24T00:32:53.532Z,94.8
2017-02-24T00:33:56.027Z,94.8
2017-02-24T00:34:58.477Z,94.7
2017-02-24T00:36:01.432Z,94.7
2017-02-24T00:37:03.753Z,94.7
2017-02-24T00:38:06.223Z,94.7
2017-02-24T00:39:09.177Z,94.7
2017-02-24T00:40:11.634Z,94.7
2017-02-24T00:42:16.822Z,94.7
2017-02-24T00:44:22.212Z,94.7
2017-02-24T00:45:24.668Z,94.7
2017-02-24T00:46:27.127Z,94.7
2017-02-24T00:47:30.109Z,94.7
2017-02-24T00:48:32.576Z,94.7
2017-02-24T00:49:35.030Z,94.7
2017-02-24T00:50:37.498Z,94.7
2017-02-24T00:51:40.282Z,94.7
2017-02-24T00:52:42.730Z,94.7
2017-02-24T00:53:45.706Z,94.7
2017-02-24T00:54:48.188Z,94.7
2017-02-24T00:56:53.553Z,94.7
2017-02-24T00:57:56.012Z,94.7
2017-02-24T00:58:58.485Z,94.7
2017-02-24T01:00:00.985Z,94.7
2017-02-24T01:01:03.799Z,94.7
2017-02-24T01:02:06.092Z,94.7
2017-02-24T01:03:09.052Z,94.7
2017-02-24T01:04:11.538Z,94.7
2017-02-24T01:05:14.326Z,94.7
2017-02-24T01:06:16.788Z,94.6
2017-02-24T01:07:19.259Z,94.6
2017-02-24T01:08:22.213Z,94.6
2017-02-24T01:09:24.669Z,94.6
2017-02-24T01:10:27.138Z,94.6
2017-02-24T01:11:30.097Z,94.6
2017-02-24T01:12:32.559Z,94.6
2017-02-24T01:13:35.018Z,94.6
2017-02-24T01:14:37.469Z,94.6
2017-02-24T01:15:40.438Z,94.6
2017-02-24T01:16:42.898Z,94.6
2017-02-24T01:17:45.376Z,94.6
2017-02-24T01:18:48.342Z,94.6
2017-02-24T01:19:50.794Z,94.6
2017-02-24T01:20:53.256Z,94.6
2017-02-24T01:21:55.716Z,94.6
2017-02-24T01:22:58.677Z,94.6
2017-02-24T01:24:01.660Z,94.6
2017-02-24T01:25:03.450Z,94.6
2017-02-24T01:26:06.418Z,94.6
2017-02-24T01:27:08.699Z,94.6
2017-02-24T01:28:11.651Z,94.6
2017-02-24T01:29:13.948Z,94.6
2017-02-24T01:30:16.757Z,94.6
2017-02-24T01:31:19.207Z,94.6
2017-02-24T01:32:22.159Z,94.6
2017-02-24T01:33:24.619Z,94.6
2017-02-24T01:34:27.069Z,94.6
2017-02-24T01:35:30.023Z,94.6
2017-02-24T01:36:33.006Z,94.5
2017-02-24T01:37:34.965Z,94.5
2017-02-24T01:39:40.327Z,94.6
2017-02-24T01:40:42.794Z,94.6
2017-02-24T01:42:48.156Z,94.6
2017-02-24T01:43:50.611Z,94.6
2017-02-24T01:44:53.102Z,94.6
2017-02-24T01:45:56.057Z,94.6
2017-02-24T01:46:58.508Z,94.6
2017-02-24T01:48:00.957Z,94.6
2017-02-24T01:49:04.440Z,94.6
2017-02-24T01:50:06.401Z,94.6
2017-02-24T01:51:08.869Z,94.6
2017-02-24T01:52:11.315Z,94.6
2017-02-24T01:53:14.267Z,94.6
2017-02-24T01:54:16.722Z,94.6
2017-02-24T01:56:22.099Z,94.6
2017-02-24T01:57:25.081Z,94.6
2017-02-24T01:58:30.406Z,94.6
2017-02-24T01:59:29.840Z,94.6
2017-02-24T02:00:32.324Z,94.6
2017-02-24T02:01:34.784Z,94.6
2017-02-24T02:02:37.249Z,94.6
2017-02-24T02:03:40.459Z,94.6
2017-02-24T02:04:42.955Z,94.6
2017-02-24T02:05:45.414Z,94.7
2017-02-24T02:06:47.860Z,94.7
2017-02-24T02:07:50.330Z,94.7
2017-02-24T02:08:53.599Z,94.7
2017-02-24T02:09:55.555Z,94.7
2017-02-24T02:10:58.525Z,94.7
2017-02-24T02:12:01.030Z,94.7
2017-02-24T02:13:03.483Z,94.7
2017-02-24T02:14:06.206Z,94.7
2017-02-24T02:15:08.500Z,94.7
2017-02-24T02:16:11.459Z,94.7
2017-02-24T02:18:16.349Z,94.7
2017-02-24T02:19:19.442Z,94.7
2017-02-24T02:20:21.892Z,94.7
2017-02-24T02:21:24.344Z,94.7
2017-02-24T02:22:26.809Z,94.7
2017-02-24T02:23:29.273Z,94.7
2017-02-24T02:24:32.314Z,94.7
2017-02-24T02:25:34.776Z,94.7
2017-02-24T02:26:37.244Z,94.7
2017-02-24T02:27:39.541Z,94.7
2017-02-24T02:28:42.492Z,94.7
2017-02-24T02:29:45.196Z,94.7
2017-02-24T02:30:47.648Z,94.7
2017-02-24T02:31:50.120Z,94.7
2017-02-24T02:32:53.084Z,94.7
2017-02-24T02:33:55.598Z,94.7
2017-02-24T02:34:58.313Z,94.7
2017-02-24T02:36:00.779Z,94.7
2017-02-24T02:37:03.252Z,94.7
2017-02-24T02:38:05.717Z,94.7
2017-02-24T02:39:08.678Z,94.7
2017-02-24T02:40:11.964Z,94.7
2017-02-24T02:41:13.575Z,94.7
2017-02-24T02:42:16.361Z,94.7
2017-02-24T02:43:18.824Z,94.7
2017-02-24T02:44:21.311Z,94.7
2017-02-24T02:45:25.050Z,94.7
2017-02-24T02:46:26.494Z,94.7
2017-02-24T02:47:29.455Z,94.7
2017-02-24T02:48:31.908Z,94.7
2017-02-24T02:49:34.888Z,94.7
2017-02-24T02:50:37.588Z,94.7
2017-02-24T02:51:39.539Z,94.7
2017-02-24T02:52:42.539Z,94.7
2017-02-24T02:53:45.010Z,94.7
2017-02-24T02:54:47.463Z,94.7
2017-02-24T02:55:50.211Z,94.7
2017-02-24T02:56:52.674Z,94.8
2017-02-24T02:57:55.189Z,94.8
2017-02-24T02:58:57.645Z,94.7
2017-02-24T03:00:00.636Z,94.8
2017-02-24T03:01:03.390Z,94.8
2017-02-24T03:02:06.364Z,94.8
2017-02-24T03:03:08.004Z,94.8
2017-02-24T03:04:10.977Z,94.8
2017-02-24T03:05:13.293Z,94.8
2017-02-24T03:06:16.529Z,94.8
2017-02-24T03:07:18.531Z,94.7
2017-02-24T03:08:21.361Z,94.7
2017-02-24T03:09:23.824Z,94.7
2017-02-24T03:10:26.286Z,94.7
2017-02-24T03:11:29.489Z,94.7
2017-02-24T03:12:31.447Z,94.7
2017-02-24T03:13:34.429Z,94.7
2017-02-24T03:14:36.892Z,94.7
2017-02-24T03:15:39.361Z,94.7
2017-02-24T03:16:42.615Z,94.7
2017-02-24T03:17:44.720Z,94.7
2017-02-24T03:18:47.181Z,94.7
2017-02-24T03:19:49.639Z,94.7
2017-02-24T03:20:52.640Z,94.7
2017-02-24T03:22:57.757Z,94.7
2017-02-24T03:24:00.237Z,94.7
2017-02-24T03:25:02.710Z,94.7
2017-02-24T03:26:05.659Z,94.7
2017-02-24T03:27:08.110Z,94.7
2017-02-24T03:28:11.031Z,94.7
2017-02-24T03:29:12.814Z,94.7
2017-02-24T03:30:15.669Z,94.7
2017-02-24T03:31:18.622Z,94.7
2017-02-24T03:32:21.071Z,94.7
2017-02-24T03:33:23.826Z,94.7
2017-02-24T03:34:26.289Z,94.7
2017-02-24T03:35:28.747Z,94.7
2017-02-24T03:36:31.201Z,94.7
2017-02-24T03:37:34.155Z,94.7
2017-02-24T03:38:36.858Z,94.7
2017-02-24T03:39:39.337Z,94.7
2017-02-24T03:40:41.836Z,94.7
2017-02-24T03:41:44.886Z,94.8
2017-02-24T03:42:47.141Z,94.8
2017-02-24T03:43:49.940Z,94.8
2017-02-24T03:44:51.952Z,94.8
2017-02-24T03:45:54.951Z,94.8
2017-02-24T03:46:57.444Z,94.8
2017-02-24T03:47:59.953Z,94.8
2017-02-24T03:49:02.711Z,94.8
2017-02-24T03:50:05.211Z,94.8
2017-02-24T03:51:07.708Z,94.8
2017-02-24T03:52:10.933Z,94.8
2017-02-24T03:53:12.778Z,94.8
2017-02-24T03:54:16.079Z,94.8
2017-02-24T03:55:18.071Z,94.8
2017-02-24T03:56:20.569Z,94.8
2017-02-24T03:57:23.089Z,94.8
2017-02-24T03:58:26.475Z,94.8
2017-02-24T03:59:28.768Z,94.8
2017-02-24T04:00:31.264Z,94.8
2017-02-24T04:01:33.616Z,94.8
2017-02-24T04:02:36.111Z,94.8
2017-02-24T04:03:38.620Z,94.8
2017-02-24T04:04:41.888Z,94.8
2017-02-24T04:05:44.267Z,94.8
2017-02-24T04:06:46.781Z,94.8
2017-02-24T04:07:49.137Z,94.9
2017-02-24T04:08:51.499Z,94.9
2017-02-24T04:09:54.769Z,94.9
2017-02-24T04:10:56.772Z,94.9
2017-02-24T04:11:59.823Z,94.9
2017-02-24T04:13:02.319Z,94.9
2017-02-24T04:14:04.968Z,94.9
2017-02-24T04:15:07.556Z,94.9
2017-02-24T04:16:09.711Z,94.9
2017-02-24T04:17:12.751Z,94.9
2017-02-24T04:18:15.248Z,94.9
2017-02-24T04:19:17.575Z,94.9
2017-02-24T04:20:20.377Z,94.9
2017-02-24T04:21:23.425Z,94.9
2017-02-24T04:22:25.448Z,95
2017-02-24T04:23:27.949Z,95
2017-02-24T04:24:30.466Z,95
2017-02-24T04:25:33.781Z,95
2017-02-24T04:26:35.778Z,95
2017-02-24T04:27:38.277Z,95
2017-02-24T04:28:40.785Z,95
2017-02-24T04:29:43.805Z,95
2017-02-24T04:30:46.570Z,95
2017-02-24T04:31:48.586Z,95.1
2017-02-24T04:32:51.068Z,95.1
2017-02-24T04:33:54.088Z,95.1
2017-02-24T04:34:56.600Z,95.1
2017-02-24T04:35:59.364Z,95.1
2017-02-24T04:37:01.875Z,95.1
2017-02-24T04:38:04.371Z,95.1
2017-02-24T04:39:06.878Z,95.1
2017-02-24T04:40:09.210Z,95.1
2017-02-24T04:41:12.357Z,95.2
2017-02-24T04:42:14.355Z,95.2
2017-02-24T04:43:17.365Z,95.2
2017-02-24T04:44:19.872Z,95.2
2017-02-24T04:45:22.375Z,95.2
2017-02-24T04:46:25.129Z,95.2
2017-02-24T04:47:27.653Z,95.2
2017-02-24T04:48:30.154Z,95.2
2017-02-24T04:49:32.660Z,95.2
2017-02-24T04:50:35.160Z,95.2
2017-02-24T04:51:37.962Z,95.2
2017-02-24T04:52:40.457Z,95.2
2017-02-24T04:53:42.965Z,95.2
2017-02-24T04:54:45.470Z,95.3
2017-02-24T04:55:47.967Z,95.3
2017-02-24T04:56:50.715Z,95.2
2017-02-24T04:57:53.220Z,95.3
2017-02-24T04:58:55.728Z,95.3
2017-02-24T04:59:58.230Z,95.3
2017-02-24T05:01:01.229Z,95.3
2017-02-24T05:02:03.886Z,95.3
2017-02-24T05:03:06.234Z,95.3
2017-02-24T05:04:09.284Z,95.3
2017-02-24T05:05:11.279Z,95.3
2017-02-24T05:06:14.113Z,95.3
2017-02-24T05:07:16.871Z,95.3
2017-02-24T05:08:18.861Z,95.3
2017-02-24T05:09:21.865Z,95.3
2017-02-24T05:10:24.396Z,95.3
2017-02-24T05:11:26.935Z,95.3
2017-02-24T05:12:29.683Z,95.3
2017-02-24T05:13:31.678Z,95.3
2017-02-24T05:14:34.687Z,95.3
2017-02-24T05:15:37.190Z,95.3
2017-02-24T05:16:39.690Z,95.3
2017-02-24T05:17:42.466Z,95.3
2017-02-24T05:18:44.997Z,95.3
2017-02-24T05:19:47.508Z,95.3
2017-02-24T05:20:50.542Z,95.3
2017-02-24T05:26:02.940Z,95.3
2017-02-24T05:27:05.438Z,95.3
2017-02-24T05:28:07.765Z,95.3
2017-02-24T05:29:10.630Z,95.3
2017-02-24T05:30:12.802Z,95.3
2017-02-24T05:32:18.463Z,95.3
2017-02-24T05:33:20.805Z,95.3
2017-02-24T05:34:23.307Z,95.3
2017-02-24T05:35:25.818Z,95.3
2017-02-24T05:36:28.332Z,95.3
2017-02-24T05:37:31.592Z,95.3
2017-02-24T05:38:33.591Z,95.3
2017-02-24T05:39:36.104Z,95.3
2017-02-24T05:40:38.626Z,95.3
2017-02-24T05:41:41.629Z,95.3
2017-02-24T05:42:44.431Z,95.3
2017-02-24T05:43:46.439Z,95.3
2017-02-24T05:44:48.945Z,95.3
2017-02-24T05:45:51.499Z,95.3
2017-02-24T05:46:54.332Z,95.3
2017-02-24T05:47:57.168Z,95.3
2017-02-24T05:49:00.201Z,95.3
2017-02-24T05:50:02.208Z,95.3
2017-02-24T05:51:04.708Z,95.3
2017-02-24T05:52:07.040Z,95.3
2017-02-24T05:53:10.137Z,95.3
2017-02-24T05:54:12.160Z,95.3
2017-02-24T05:55:14.989Z,95.3
2017-02-24T05:56:17.496Z,95.3
2017-02-24T05:57:20.007Z,95.3
2017-02-24T05:58:22.838Z,95.3
2017-02-24T05:59:25.369Z,95.3
2017-02-24T06:00:27.868Z,95.3
2017-02-24T06:01:30.374Z,95.3
2017-02-24T06:02:32.867Z,95.3
2017-02-24T06:03:35.679Z,95.3
2017-02-24T06:04:38.200Z,95.3
2017-02-24T06:05:40.704Z,95.3
2017-02-24T06:06:43.217Z,95.3
2017-02-24T06:07:45.714Z,95.2
2017-02-24T06:08:48.294Z,95.3
2017-02-24T06:09:51.326Z,95.2
2017-02-24T06:10:53.321Z,95.2
2017-02-24T06:11:55.835Z,95.2
2017-02-24T06:12:58.343Z,95.2
2017-02-24T06:14:01.650Z,95.2
2017-02-24T06:15:03.477Z,95.2
2017-02-24T06:16:06.310Z,95.2
2017-02-24T06:17:08.826Z,95.2
2017-02-24T06:18:11.323Z,95.2
2017-02-24T06:19:14.126Z,95.2
2017-02-24T06:20:16.457Z,95.2
2017-02-24T06:21:18.967Z,95.2
2017-02-24T06:22:21.461Z,95.2
2017-02-24T06:23:24.469Z,95.2
2017-02-24T06:24:27.275Z,95.2
2017-02-24T06:25:29.276Z,95.2
2017-02-24T06:26:31.765Z,95.2
2017-02-24T06:27:34.794Z,95.2
2017-02-24T06:28:37.297Z,95.2
2017-02-24T06:29:40.107Z,95.2
2017-02-24T06:30:42.117Z,95.2
2017-02-24T06:31:45.151Z,95.2
2017-02-24T06:32:47.652Z,95.2
2017-02-24T06:33:50.163Z,95.2
2017-02-24T06:34:52.959Z,95.1
2017-02-24T06:35:55.298Z,95.1
2017-02-24T06:36:57.832Z,95.1
2017-02-24T06:38:00.331Z,95.1
2017-02-24T06:39:02.833Z,95.1
2017-02-24T06:40:05.639Z,95.1
2017-02-24T06:41:08.146Z,95.1
2017-02-24T06:42:10.485Z,95.1
2017-02-24T06:43:12.821Z,95.1
2017-02-24T06:44:15.828Z,95.1
2017-02-24T06:45:18.585Z,95.1
2017-02-24T06:46:20.586Z,95.1
2017-02-24T06:47:23.605Z,95.1
2017-02-24T06:48:26.101Z,95.1
2017-02-24T06:49:28.606Z,95.1
2017-02-24T06:50:31.738Z,95.1
2017-02-24T06:51:33.760Z,95.1
2017-02-24T06:52:36.260Z,95.1
2017-02-24T06:53:38.615Z,95
2017-02-24T06:54:41.454Z,95
2017-02-24T06:55:44.216Z,95
2017-02-24T06:56:46.724Z,95
2017-02-24T06:57:49.225Z,95
2017-02-24T06:58:52.323Z,95
2017-02-24T06:59:54.328Z,95
2017-02-24T07:00:57.158Z,95
2017-02-24T07:01:59.152Z,95
2017-02-24T07:03:02.163Z,95
2017-02-24T07:04:04.498Z,95
2017-02-24T07:05:06.996Z,95
2017-02-24T07:06:09.746Z,95
2017-02-24T07:07:12.242Z,95
2017-02-24T07:08:14.747Z,95
2017-02-24T07:09:17.252Z,95
2017-02-24T07:10:19.750Z,95
2017-02-24T07:11:22.833Z,95
2017-02-24T07:12:25.171Z,95
2017-02-24T07:13:27.685Z,95
2017-02-24T07:14:30.185Z,95
2017-02-24T07:15:32.696Z,95
2017-02-24T07:16:35.510Z,95
2017-02-24T07:17:38.010Z,95
2017-02-24T07:19:42.747Z,95
2017-02-24T07:20:45.745Z,95
2017-02-24T07:21:48.496Z,95
2017-02-24T07:22:50.840Z,95
2017-02-24T07:23:53.731Z,95
2017-02-24T07:24:55.736Z,95
2017-02-24T07:25:58.228Z,95
2017-02-24T07:27:01.533Z,95
2017-02-24T07:28:03.567Z,95
2017-02-24T07:29:06.124Z,95
2017-02-24T07:30:08.634Z,94.9
2017-02-24T07:31:11.138Z,94.9
2017-02-24T07:32:13.955Z,94.9
2017-02-24T07:33:16.453Z,94.9
2017-02-24T07:34:18.960Z,94.9
2017-02-24T07:35:21.467Z,94.9
2017-02-24T07:36:23.966Z,95
2017-02-24T07:37:26.754Z,95
2017-02-24T07:38:29.268Z,95
2017-02-24T07:39:31.817Z,95
2017-02-24T07:40:34.171Z,95
2017-02-24T07:41:36.860Z,95
2017-02-24T07:42:39.613Z,95
2017-02-24T07:43:42.108Z,95
2017-02-24T07:44:44.656Z,95
2017-02-24T07:45:47.184Z,94.9
2017-02-24T07:46:49.719Z,95
2017-02-24T07:47:52.480Z,95
2017-02-24T07:48:54.981Z,95
2017-02-24T07:49:57.487Z,95
2017-02-24T07:50:59.990Z,94.9
2017-02-24T07:52:02.505Z,94.9
2017-02-24T07:54:08.007Z,94.9
2017-02-24T07:55:10.511Z,94.9
2017-02-24T07:56:13.015Z,94.9
2017-02-24T07:57:15.349Z,94.9
2017-02-24T07:58:18.371Z,94.9
2017-02-24T07:59:21.116Z,94.9
2017-02-24T08:00:23.519Z,95
2017-02-24T08:01:26.033Z,95
2017-02-24T08:02:28.529Z,95
2017-02-24T08:03:31.028Z,95
2017-02-24T08:04:33.849Z,94.9
2017-02-24T08:05:36.368Z,94.9
2017-02-24T08:06:39.416Z,94.9
2017-02-24T08:07:41.425Z,94.9
2017-02-24T08:08:43.924Z,94.9
2017-02-24T08:09:46.685Z,94.9
2017-02-24T08:10:49.183Z,94.9
2017-02-24T08:11:51.517Z,94.9
2017-02-24T08:12:54.033Z,94.9
2017-02-24T08:13:56.529Z,94.9
2017-02-24T08:14:59.339Z,94.9
2017-02-24T08:16:01.837Z,94.9
2017-02-24T08:17:04.330Z,94.9
2017-02-24T08:18:06.844Z,94.9
2017-02-24T08:19:09.692Z,94.9
2017-02-24T08:20:12.447Z,94.9
2017-02-24T08:21:14.948Z,94.9
2017-02-24T08:22:17.446Z,94.9
2017-02-24T08:23:19.946Z,94.9
2017-02-24T08:24:22.438Z,94.9
2017-02-24T08:25:25.408Z,94.9
2017-02-24T08:26:27.406Z,94.9
2017-02-24T08:28:32.647Z,94.9
2017-02-24T08:29:35.483Z,94.9
2017-02-24T08:30:38.150Z,94.9
2017-02-24T08:31:40.656Z,94.9
2017-02-24T08:32:43.152Z,94.9
2017-02-24T08:33:45.654Z,94.9
2017-02-24T08:34:48.159Z,94.9
2017-02-24T08:35:50.905Z,94.9
2017-02-24T08:36:53.406Z,94.9
2017-02-24T08:37:55.919Z,94.9
2017-02-24T08:40:00.673Z,94.9
2017-02-24T08:41:03.817Z,94.9
2017-02-24T08:42:06.318Z,94.9
2017-02-24T08:43:08.829Z,94.9
2017-02-24T08:44:11.323Z,94.9
2017-02-24T08:45:13.817Z,94.9
2017-02-24T08:46:16.575Z,94.9
2017-02-24T08:47:19.070Z,94.9
2017-02-24T08:48:21.609Z,94.9
2017-02-24T08:49:24.118Z,94.9
2017-02-24T08:50:26.660Z,94.9
2017-02-24T08:51:29.803Z,94.9
2017-02-24T08:52:31.807Z,94.9
2017-02-24T08:53:34.311Z,94.9
2017-02-24T08:54:36.836Z,94.9
2017-02-24T08:55:39.841Z,94.9
2017-02-24T08:56:42.599Z,94.9
2017-02-24T08:57:44.615Z,94.9
2017-02-24T08:58:47.138Z,94.9
2017-02-24T08:59:50.140Z,94.9
2017-02-24T09:00:52.633Z,94.9
2017-02-24T09:01:55.755Z,94.9
2017-02-24T09:02:57.752Z,94.9
2017-02-24T09:04:00.268Z,94.8
2017-02-24T09:05:03.010Z,94.8
2017-02-24T09:07:08.056Z,94.8
2017-02-24T09:08:10.566Z,94.8
2017-02-24T09:09:12.904Z,94.8
2017-02-24T09:10:15.926Z,94.8
2017-02-24T09:11:18.816Z,94.8
2017-02-24T09:12:21.059Z,94.7
2017-02-24T09:13:23.557Z,94.7
2017-02-24T09:14:26.058Z,94.7
2017-02-24T09:15:28.564Z,94.7
2017-02-24T09:16:31.063Z,94.7
2017-02-24T09:17:33.883Z,94.7
2017-02-24T09:18:36.388Z,94.7
2017-02-24T09:19:38.891Z,94.7
2017-02-24T09:20:41.217Z,94.7
2017-02-24T09:22:46.923Z,94.7
2017-02-24T09:23:49.418Z,94.7
2017-02-24T09:24:51.927Z,94.7
2017-02-24T09:25:54.428Z,94.7
2017-02-24T09:26:56.921Z,94.7
2017-02-24T09:27:59.725Z,94.7
2017-02-24T09:29:02.233Z,94.7
2017-02-24T09:30:04.403Z,94.7
2017-02-24T09:31:07.412Z,94.7
2017-02-24T09:32:09.928Z,94.7
2017-02-24T09:33:12.681Z,94.7
2017-02-24T09:34:15.194Z,94.7
2017-02-24T09:35:18.063Z,94.7
2017-02-24T09:36:20.063Z,94.6
2017-02-24T09:37:22.557Z,94.6
2017-02-24T09:38:25.637Z,94.6
2017-02-24T09:39:27.460Z,94.6
2017-02-24T09:40:30.496Z,94.6
2017-02-24T09:41:32.991Z,94.6
2017-02-24T09:42:35.839Z,94.6
2017-02-24T09:43:38.647Z,94.6
2017-02-24T09:44:40.650Z,94.6
2017-02-24T09:45:43.175Z,94.6
2017-02-24T09:46:45.687Z,94.6
2017-02-24T09:47:48.534Z,94.6
2017-02-24T09:48:51.331Z,94.6
2017-02-24T09:49:53.829Z,94.6
2017-02-24T09:50:56.328Z,94.6
2017-02-24T09:51:58.659Z,94.6
2017-02-24T09:53:01.155Z,94.6
2017-02-24T09:54:04.472Z,94.6
2017-02-24T09:55:06.484Z,94.6
2017-02-24T09:56:08.988Z,94.6
2017-02-24T09:57:11.497Z,94.6
2017-02-24T09:58:14.519Z,94.5
2017-02-24T09:59:17.268Z,94.5
2017-02-24T10:00:19.300Z,94.5
2017-02-24T10:01:21.797Z,94.5
2017-02-24T10:02:24.813Z,94.5
2017-02-24T10:03:27.304Z,94.5
2017-02-24T10:04:29.950Z,94.5
2017-02-24T10:05:32.463Z,94.5
2017-02-24T10:06:34.969Z,94.5
2017-02-24T10:07:37.468Z,94.5
2017-02-24T10:08:39.963Z,94.5
2017-02-24T10:09:42.769Z,94.5
2017-02-24T10:10:45.275Z,94.4
2017-02-24T10:11:48.113Z,94.4
2017-02-24T10:12:50.610Z,94.4
2017-02-24T10:13:53.111Z,94.4
2017-02-24T10:14:55.753Z,94.4
2017-02-24T10:15:58.262Z,94.3
2017-02-24T10:17:00.765Z,94.3
2017-02-24T10:18:03.266Z,94.3
2017-02-24T10:19:05.771Z,94.3
2017-02-24T10:20:08.869Z,94.3
2017-02-24T10:21:11.365Z,94.3
2017-02-24T10:22:13.706Z,94.3
2017-02-24T10:23:16.217Z,94.3
2017-02-24T10:24:18.773Z,94.3
2017-02-24T10:25:21.560Z,94.3
2017-02-24T10:26:23.886Z,94.3
2017-02-24T10:27:26.720Z,94.3
2017-02-24T10:28:29.235Z,94.3
2017-02-24T10:30:34.403Z,94.4
2017-02-24T10:31:36.904Z,94.4
2017-02-24T10:32:39.404Z,94.4
2017-02-24T10:33:41.922Z,94.4
2017-02-24T10:34:44.928Z,94.4
2017-02-24T10:35:47.686Z,94.4
2017-02-24T10:36:49.686Z,94.4
2017-02-24T10:37:52.190Z,94.5
2017-02-24T10:38:55.197Z,94.5
2017-02-24T10:39:57.706Z,94.5
2017-02-24T10:41:00.538Z,94.5
2017-02-24T10:42:02.553Z,94.5
2017-02-24T10:43:05.400Z,94.5
2017-02-24T10:44:07.897Z,94.6
2017-02-24T10:45:10.408Z,94.6
2017-02-24T10:46:13.217Z,94.6
2017-02-24T10:47:15.719Z,94.6
2017-02-24T10:48:18.221Z,94.6
2017-02-24T10:49:20.843Z,94.6
2017-02-24T10:50:23.365Z,94.6
2017-02-24T10:51:26.123Z,94.6
2017-02-24T10:52:28.654Z,94.6
2017-02-24T10:53:30.985Z,94.6
2017-02-24T10:54:33.484Z,94.6
2017-02-24T10:55:36.327Z,94.6
2017-02-24T10:56:39.133Z,94.6
2017-02-24T10:57:41.652Z,94.6
2017-02-24T10:58:44.160Z,94.6
2017-02-24T10:59:46.663Z,94.6
2017-02-24T11:00:49.162Z,94.6
2017-02-24T11:01:51.756Z,94.6
2017-02-24T11:02:54.105Z,94.6
2017-02-24T11:03:57.139Z,94.6
2017-02-24T11:04:59.653Z,94.6
2017-02-24T11:06:02.162Z,94.6
2017-02-24T11:07:04.928Z,94.6
2017-02-24T11:08:07.262Z,94.6
2017-02-24T11:09:09.765Z,94.5
2017-02-24T11:10:12.260Z,94.5
2017-02-24T11:12:17.748Z,94.5
2017-02-24T11:13:19.921Z,94.5
2017-02-24T11:14:22.925Z,94.5
2017-02-24T11:15:25.454Z,94.5
2017-02-24T11:16:27.778Z,94.4
2017-02-24T11:17:30.573Z,94.4
2017-02-24T11:18:33.069Z,94.4
2017-02-24T11:19:35.588Z,94.4
2017-02-24T11:20:38.140Z,94.4
2017-02-24T11:21:40.653Z,94.4
2017-02-24T11:22:43.403Z,94.4
2017-02-24T11:23:45.898Z,94.3
2017-02-24T11:24:48.415Z,94.3
2017-02-24T11:25:50.921Z,94.3
2017-02-24T11:26:53.935Z,94.2
2017-02-24T11:27:56.698Z,94.2
2017-02-24T11:28:58.696Z,94.3
2017-02-24T11:30:01.214Z,94.3
2017-02-24T11:31:04.221Z,94.3
2017-02-24T11:32:06.546Z,94.3
2017-02-24T11:33:09.292Z,94.3
2017-02-24T11:34:11.794Z,94.3
2017-02-24T11:35:14.128Z,94.3
2017-02-24T11:36:17.180Z,94.3
2017-02-24T11:38:22.400Z,94.3
2017-02-24T11:39:24.404Z,94.3
2017-02-24T11:41:29.824Z,94.4
2017-02-24T11:42:32.333Z,94.5
2017-02-24T11:43:35.081Z,94.5
2017-02-24T11:44:37.589Z,94.6
2017-02-24T11:45:40.100Z,94.6
2017-02-24T11:46:42.259Z,94.6
2017-02-24T11:47:45.259Z,94.6
2017-02-24T11:48:48.010Z,94.6
2017-02-24T11:49:50.521Z,94.6
2017-02-24T11:50:53.022Z,94.6
2017-02-24T11:51:55.561Z,94.6
2017-02-24T11:52:58.062Z,94.6
2017-02-24T11:54:00.821Z,94.6
2017-02-24T11:55:03.153Z,94.7
2017-02-24T11:56:05.832Z,94.7
2017-02-24T11:57:08.170Z,94.7
2017-02-24T11:58:10.693Z,94.7
2017-02-24T11:59:13.505Z,94.7
2017-02-24T12:00:16.001Z,94.7
2017-02-24T12:01:18.506Z,94.7
2017-02-24T12:02:21.013Z,94.7
2017-02-24T12:03:23.856Z,94.7
2017-02-24T12:04:26.660Z,94.8
2017-02-24T12:05:28.662Z,94.7
2017-02-24T12:06:31.503Z,94.8
2017-02-24T12:07:34.002Z,94.7
2017-02-24T12:08:36.509Z,94.7
2017-02-24T12:10:42.216Z,94.7
2017-02-24T12:11:44.051Z,94.7
2017-02-24T12:12:47.093Z,94.7
2017-02-24T12:13:49.630Z,94.7
2017-02-24T12:14:52.149Z,94.7
2017-02-24T12:15:54.627Z,94.7
2017-02-24T12:16:56.959Z,94.7
2017-02-24T12:17:59.961Z,94.7
2017-02-24T12:19:02.458Z,94.7
2017-02-24T12:20:04.954Z,94.6
2017-02-24T12:21:07.758Z,94.6
2017-02-24T12:22:09.772Z,94.6
2017-02-24T12:23:12.785Z,94.6
2017-02-24T12:24:15.300Z,94.6
2017-02-24T12:25:17.806Z,94.6
2017-02-24T12:26:20.556Z,94.6
2017-02-24T12:27:23.060Z,94.6
2017-02-24T12:28:25.564Z,94.6
2017-02-24T12:29:27.891Z,94.6
2017-02-24T12:30:30.383Z,94.6
2017-02-24T12:31:33.652Z,94.6
2017-02-24T12:32:35.650Z,94.6
2017-02-24T12:33:38.148Z,94.6
2017-02-24T12:34:41.155Z,94.6
2017-02-24T12:36:46.355Z,94.7
2017-02-24T12:37:48.851Z,94.7
2017-02-24T12:38:51.362Z,94.7
2017-02-24T12:39:53.875Z,94.7
2017-02-24T12:40:56.376Z,94.7
2017-02-24T12:41:59.181Z,94.7
2017-02-24T12:43:01.683Z,94.7
2017-02-24T12:44:04.191Z,94.7
2017-02-24T12:45:06.691Z,94.7
2017-02-24T12:46:09.203Z,94.7
2017-02-24T12:47:11.974Z,94.7
2017-02-24T12:48:14.306Z,94.7
2017-02-24T12:49:16.808Z,94.7
2017-02-24T12:50:19.647Z,94.7
2017-02-24T12:51:22.168Z,94.7
2017-02-24T12:52:24.998Z,94.7
2017-02-24T12:53:26.998Z,94.7
2017-02-24T12:54:29.496Z,94.7
2017-02-24T12:55:32.507Z,94.7
2017-02-24T12:56:35.007Z,94.7
2017-02-24T12:57:37.755Z,94.7
2017-02-24T12:58:39.791Z,94.6
2017-02-24T12:59:42.539Z,94.6
2017-02-24T13:00:45.038Z,94.6
2017-02-24T13:01:47.894Z,94.7
2017-02-24T13:02:50.690Z,94.7
2017-02-24T13:03:52.558Z,94.7
2017-02-24T13:04:55.583Z,94.7
2017-02-24T13:05:57.929Z,94.7
2017-02-24T13:07:00.433Z,94.7
2017-02-24T13:08:03.775Z,94.7
2017-02-24T13:09:05.785Z,94.7
2017-02-24T13:10:08.283Z,94.7
2017-02-24T13:11:10.775Z,94.7
2017-02-24T13:12:13.149Z,94.7
2017-02-24T13:13:15.906Z,94.7
2017-02-24T13:14:18.408Z,94.7
2017-02-24T13:15:20.734Z,94.7
2017-02-24T13:16:23.747Z,94.8
2017-02-24T13:17:26.243Z,94.8
2017-02-24T13:18:29.062Z,94.7
2017-02-24T13:19:31.395Z,94.7
2017-02-24T13:20:33.894Z,94.7
2017-02-24T13:21:36.389Z,94.7
2017-02-24T13:22:39.433Z,94.6
2017-02-24T13:23:41.522Z,94.6
2017-02-24T13:24:44.032Z,94.6
2017-02-24T13:25:46.530Z,94.6
2017-02-24T13:26:49.068Z,94.6
2017-02-24T13:28:54.779Z,94.5
2017-02-24T13:30:59.214Z,94.4
2017-02-24T13:32:01.732Z,94.5
2017-02-24T13:33:04.737Z,94.5
2017-02-24T13:34:07.492Z,94.5
2017-02-24T13:35:09.541Z,94.5
2017-02-24T13:36:12.080Z,94.5
2017-02-24T13:37:14.644Z,94.5
2017-02-24T13:38:17.159Z,94.5
2017-02-24T13:39:20.012Z,94.5
2017-02-24T13:40:22.503Z,94.5
2017-02-24T13:41:25.013Z,94.6
2017-02-24T13:42:27.512Z,94.6
2017-02-24T13:43:29.849Z,94.6
2017-02-24T13:44:33.107Z,94.6
2017-02-24T13:45:35.128Z,94.6
2017-02-24T13:47:40.535Z,94.6
2017-02-24T13:48:43.028Z,94.6
2017-02-24T13:49:45.664Z,94.6
2017-02-24T13:50:48.183Z,94.7
2017-02-24T13:51:50.682Z,94.7
2017-02-24T13:52:53.210Z,94.7
2017-02-24T13:54:58.365Z,94.6
2017-02-24T13:56:00.927Z,94.6
2017-02-24T13:57:03.436Z,94.6
2017-02-24T13:58:05.769Z,94.6
2017-02-24T13:59:08.278Z,94.6
2017-02-24T14:00:11.060Z,94.6
2017-02-24T14:01:13.567Z,94.6
2017-02-24T14:02:15.898Z,94.7
2017-02-24T14:03:18.904Z,94.7
2017-02-24T14:04:21.398Z,94.7
2017-02-24T14:05:24.220Z,94.7
2017-02-24T14:06:26.223Z,94.7
2017-02-24T14:07:28.727Z,94.6
2017-02-24T14:08:31.234Z,94.5
2017-02-24T14:09:34.067Z,94.5
2017-02-24T14:10:36.833Z,94.5
2017-02-24T14:11:39.326Z,94.5
2017-02-24T14:12:41.832Z,94.5
2017-02-24T14:13:44.361Z,94.5
2017-02-24T14:14:46.707Z,94.5
2017-02-24T14:15:50.068Z,94.5
2017-02-24T14:16:51.914Z,94.5
2017-02-24T14:17:54.247Z,94.5
2017-02-24T14:18:57.094Z,94.5
2017-02-24T14:19:59.597Z,94.6
2017-02-24T14:21:02.945Z,94.6
2017-02-24T14:22:04.603Z,94.5
2017-02-24T14:23:07.102Z,94.5
2017-02-24T14:24:09.472Z,94.5
2017-02-24T14:25:12.313Z,94.6
2017-02-24T14:26:14.899Z,94.6
2017-02-24T14:28:19.804Z,94.6